sensor_id;sensor_type;location;lat;lon;timestamp;pressure;altitude;pressure_sealevel;temperature;humidity
36192;BME280;22233;42.708;23.360;2022-08-01T00:00:00;95325.59;;;20.83;59.33
36192;BME280;22233;42.708;23.360;2022-08-01T00:02:28;95317.25;;;20.75;59.32
36192;BME280;22233;42.708;23.360;2022-08-01T00:04:54;95330.19;;;20.68;59.87
36192;BME280;22233;42.708;23.360;2022-08-01T00:07:19;95322.81;;;20.42;60.22
36192;BME280;22233;42.708;23.360;2022-08-01T00:09:45;95334.19;;;20.40;60.23
36192;BME280;22233;42.708;23.360;2022-08-01T00:12:10;95328.00;;;20.13;61.16
36192;BME280;22233;42.708;23.360;2022-08-01T00:14:36;95328.06;;;20.20;61.14
36192;BME280;22233;42.708;23.360;2022-08-01T00:17:02;95330.22;;;19.70;62.47
36192;BME280;22233;42.708;23.360;2022-08-01T00:19:27;95315.94;;;19.61;62.29
36192;BME280;22233;42.708;23.360;2022-08-01T00:21:53;95333.00;;;19.70;62.58
36192;BME280;22233;42.708;23.360;2022-08-01T00:24:18;95332.25;;;19.73;61.97
36192;BME280;22233;42.708;23.360;2022-08-01T00:26:44;95328.03;;;19.52;62.90
36192;BME280;22233;42.708;23.360;2022-08-01T00:29:09;95342.28;;;19.62;62.49
36192;BME280;22233;42.708;23.360;2022-08-01T00:31:35;95336.00;;;19.61;62.76
36192;BME280;22233;42.708;23.360;2022-08-01T00:34:00;95318.31;;;19.62;61.54
36192;BME280;22233;42.708;23.360;2022-08-01T00:36:25;95336.75;;;19.85;61.87
36192;BME280;22233;42.708;23.360;2022-08-01T00:38:51;95334.47;;;19.94;61.10
36192;BME280;22233;42.708;23.360;2022-08-01T00:41:16;95332.34;;;19.80;61.76
36192;BME280;22233;42.708;23.360;2022-08-01T00:43:43;95324.81;;;19.77;61.26
36192;BME280;22233;42.708;23.360;2022-08-01T00:46:08;95335.09;;;19.53;62.64
36192;BME280;22233;42.708;23.360;2022-08-01T00:48:33;95311.16;;;19.84;60.70
36192;BME280;22233;42.708;23.360;2022-08-01T00:50:59;95307.72;;;19.64;61.74
36192;BME280;22233;42.708;23.360;2022-08-01T00:53:24;95315.00;;;19.80;60.92
36192;BME280;22233;42.708;23.360;2022-08-01T00:55:50;95309.53;;;19.83;60.71
36192;BME280;22233;42.708;23.360;2022-08-01T00:58:16;95300.38;;;19.75;60.94
36192;BME280;22233;42.708;23.360;2022-08-01T01:00:42;95300.97;;;19.92;60.78
36192;BME280;22233;42.708;23.360;2022-08-01T01:03:07;95302.91;;;19.88;60.49
36192;BME280;22233;42.708;23.360;2022-08-01T01:05:45;95298.69;;;19.98;60.43
36192;BME280;22233;42.708;23.360;2022-08-01T01:08:18;95304.97;;;19.94;60.27
36192;BME280;22233;42.708;23.360;2022-08-01T01:11:03;95297.53;;;19.68;61.49
36192;BME280;22233;42.708;23.360;2022-08-01T01:13:46;95287.81;;;19.48;61.58
36192;BME280;22233;42.708;23.360;2022-08-01T01:16:16;95287.84;;;19.51;61.38
36192;BME280;22233;42.708;23.360;2022-08-01T01:19:03;95298.13;;;19.54;60.97
36192;BME280;22233;42.708;23.360;2022-08-01T01:21:47;95298.56;;;19.56;61.02
36192;BME280;22233;42.708;23.360;2022-08-01T01:27:24;95281.38;;;19.36;60.95
36192;BME280;22233;42.708;23.360;2022-08-01T01:29:56;95289.06;;;19.24;61.02
36192;BME280;22233;42.708;23.360;2022-08-01T01:34:49;95285.53;;;19.84;60.06
36192;BME280;22233;42.708;23.360;2022-08-01T01:37:21;95279.75;;;19.92;58.74
36192;BME280;22233;42.708;23.360;2022-08-01T01:39:49;95269.53;;;19.97;58.46
36192;BME280;22233;42.708;23.360;2022-08-01T01:42:17;95268.28;;;19.90;58.53
36192;BME280;22233;42.708;23.360;2022-08-01T01:44:46;95266.41;;;19.68;59.60
36192;BME280;22233;42.708;23.360;2022-08-01T01:47:14;95273.34;;;19.54;60.46
36192;BME280;22233;42.708;23.360;2022-08-01T01:49:43;95269.34;;;19.79;59.37
36192;BME280;22233;42.708;23.360;2022-08-01T01:52:12;95261.59;;;19.91;59.46
36192;BME280;22233;42.708;23.360;2022-08-01T01:54:44;95265.78;;;19.78;60.16
36192;BME280;22233;42.708;23.360;2022-08-01T01:57:12;95261.28;;;19.66;60.56
36192;BME280;22233;42.708;23.360;2022-08-01T01:59:39;95261.00;;;19.45;61.28
36192;BME280;22233;42.708;23.360;2022-08-01T02:02:06;95265.78;;;19.78;60.30
36192;BME280;22233;42.708;23.360;2022-08-01T02:04:35;95256.38;;;19.83;59.93
36192;BME280;22233;42.708;23.360;2022-08-01T02:07:02;95272.72;;;19.99;60.03
36192;BME280;22233;42.708;23.360;2022-08-01T02:09:28;95268.88;;;20.07;59.88
36192;BME280;22233;42.708;23.360;2022-08-01T02:11:56;95263.34;;;20.07;60.09
36192;BME280;22233;42.708;23.360;2022-08-01T02:14:24;95256.28;;;20.09;60.20
36192;BME280;22233;42.708;23.360;2022-08-01T02:16:54;95249.94;;;20.05;60.42
36192;BME280;22233;42.708;23.360;2022-08-01T02:19:21;95261.97;;;20.27;59.59
36192;BME280;22233;42.708;23.360;2022-08-01T02:21:57;95276.13;;;20.26;59.94
36192;BME280;22233;42.708;23.360;2022-08-01T02:24:39;95268.78;;;20.00;60.64
36192;BME280;22233;42.708;23.360;2022-08-01T02:27:09;95267.06;;;19.88;60.08
36192;BME280;22233;42.708;23.360;2022-08-01T02:30:03;95266.22;;;19.84;60.47
36192;BME280;22233;42.708;23.360;2022-08-01T02:32:37;95262.63;;;19.49;61.08
36192;BME280;22233;42.708;23.360;2022-08-01T02:35:05;95265.72;;;19.14;61.11
36192;BME280;22233;42.708;23.360;2022-08-01T02:37:34;95255.22;;;19.23;61.41
36192;BME280;22233;42.708;23.360;2022-08-01T02:40:02;95261.50;;;18.93;62.28
36192;BME280;22233;42.708;23.360;2022-08-01T02:42:29;95257.69;;;18.79;62.19
36192;BME280;22233;42.708;23.360;2022-08-01T02:44:57;95267.38;;;18.92;62.33
36192;BME280;22233;42.708;23.360;2022-08-01T02:47:23;95265.66;;;19.10;61.66
36192;BME280;22233;42.708;23.360;2022-08-01T02:49:52;95235.25;;;18.76;62.32
36192;BME280;22233;42.708;23.360;2022-08-01T02:52:18;95264.19;;;18.90;61.64
36192;BME280;22233;42.708;23.360;2022-08-01T02:54:45;95260.53;;;19.09;60.95
36192;BME280;22233;42.708;23.360;2022-08-01T02:57:12;95247.50;;;18.79;61.45
36192;BME280;22233;42.708;23.360;2022-08-01T02:59:39;95269.88;;;18.54;62.51
36192;BME280;22233;42.708;23.360;2022-08-01T03:02:06;95263.03;;;18.45;62.41
36192;BME280;22233;42.708;23.360;2022-08-01T03:04:34;95268.28;;;18.30;63.34
36192;BME280;22233;42.708;23.360;2022-08-01T03:07:01;95267.06;;;18.51;62.57
36192;BME280;22233;42.708;23.360;2022-08-01T03:09:29;95247.56;;;18.36;62.55
36192;BME280;22233;42.708;23.360;2022-08-01T03:11:59;95257.59;;;18.25;63.20
36192;BME280;22233;42.708;23.360;2022-08-01T03:14:26;95251.16;;;17.94;64.46
36192;BME280;22233;42.708;23.360;2022-08-01T03:16:53;95263.44;;;18.01;64.77
36192;BME280;22233;42.708;23.360;2022-08-01T03:19:23;95252.00;;;17.99;64.42
36192;BME280;22233;42.708;23.360;2022-08-01T03:21:49;95257.66;;;18.06;64.13
36192;BME280;22233;42.708;23.360;2022-08-01T03:24:16;95267.03;;;18.05;64.21
36192;BME280;22233;42.708;23.360;2022-08-01T03:26:43;95267.91;;;17.70;65.15
36192;BME280;22233;42.708;23.360;2022-08-01T03:29:17;95272.06;;;17.99;64.23
36192;BME280;22233;42.708;23.360;2022-08-01T03:31:45;95262.97;;;17.95;63.51
36192;BME280;22233;42.708;23.360;2022-08-01T03:34:11;95254.56;;;17.88;63.72
36192;BME280;22233;42.708;23.360;2022-08-01T03:36:46;95268.22;;;17.65;65.00
36192;BME280;22233;42.708;23.360;2022-08-01T03:39:13;95264.88;;;17.94;63.27
36192;BME280;22233;42.708;23.360;2022-08-01T03:41:41;95260.31;;;18.02;63.27
36192;BME280;22233;42.708;23.360;2022-08-01T03:44:15;95270.28;;;18.10;63.33
36192;BME280;22233;42.708;23.360;2022-08-01T03:46:47;95249.66;;;17.97;63.60
36192;BME280;22233;42.708;23.360;2022-08-01T03:49:24;95273.44;;;18.32;62.31
36192;BME280;22233;42.708;23.360;2022-08-01T03:51:52;95279.00;;;18.35;62.64
36192;BME280;22233;42.708;23.360;2022-08-01T03:54:24;95279.97;;;18.47;62.72
36192;BME280;22233;42.708;23.360;2022-08-01T03:56:51;95286.94;;;18.41;62.95
36192;BME280;22233;42.708;23.360;2022-08-01T03:59:18;95281.75;;;18.35;62.36
36192;BME280;22233;42.708;23.360;2022-08-01T04:01:45;95267.03;;;18.47;61.71
36192;BME280;22233;42.708;23.360;2022-08-01T04:04:12;95262.59;;;18.20;62.16
36192;BME280;22233;42.708;23.360;2022-08-01T04:06:39;95277.50;;;18.19;62.52
36192;BME280;22233;42.708;23.360;2022-08-01T04:09:07;95275.56;;;18.19;62.95
36192;BME280;22233;42.708;23.360;2022-08-01T04:11:33;95288.16;;;18.01;64.44
36192;BME280;22233;42.708;23.360;2022-08-01T04:13:58;95285.16;;;18.29;63.07
36192;BME280;22233;42.708;23.360;2022-08-01T04:16:23;95279.84;;;18.40;62.38
36192;BME280;22233;42.708;23.360;2022-08-01T04:18:49;95291.31;;;18.22;63.19
36192;BME280;22233;42.708;23.360;2022-08-01T04:21:17;95270.59;;;18.28;62.36
36192;BME280;22233;42.708;23.360;2022-08-01T04:23:44;95280.63;;;18.40;62.15
36192;BME280;22233;42.708;23.360;2022-08-01T04:26:12;95276.00;;;18.44;62.60
36192;BME280;22233;42.708;23.360;2022-08-01T04:28:39;95279.91;;;18.43;62.84
36192;BME280;22233;42.708;23.360;2022-08-01T04:31:09;95260.91;;;18.58;61.20
36192;BME280;22233;42.708;23.360;2022-08-01T04:33:35;95276.34;;;18.66;61.09
36192;BME280;22233;42.708;23.360;2022-08-01T04:36:03;95291.03;;;18.73;62.34
36192;BME280;22233;42.708;23.360;2022-08-01T04:38:30;95276.69;;;18.84;60.87
36192;BME280;22233;42.708;23.360;2022-08-01T04:40:57;95279.44;;;19.10;60.22
36192;BME280;22233;42.708;23.360;2022-08-01T04:43:23;95273.91;;;19.10;60.55
36192;BME280;22233;42.708;23.360;2022-08-01T04:45:50;95280.56;;;18.83;61.52
36192;BME280;22233;42.708;23.360;2022-08-01T04:48:17;95273.78;;;18.76;61.44
36192;BME280;22233;42.708;23.360;2022-08-01T04:50:44;95269.78;;;18.97;60.35
36192;BME280;22233;42.708;23.360;2022-08-01T04:53:17;95282.19;;;19.10;60.33
36192;BME280;22233;42.708;23.360;2022-08-01T04:55:43;95274.81;;;19.18;59.75
36192;BME280;22233;42.708;23.360;2022-08-01T04:58:10;95253.66;;;18.72;61.33
36192;BME280;22233;42.708;23.360;2022-08-01T05:00:35;95269.91;;;19.04;60.68
36192;BME280;22233;42.708;23.360;2022-08-01T05:03:01;95278.38;;;18.92;60.94
36192;BME280;22233;42.708;23.360;2022-08-01T05:05:26;95265.09;;;18.74;61.32
36192;BME280;22233;42.708;23.360;2022-08-01T05:07:51;95257.59;;;18.71;61.31
36192;BME280;22233;42.708;23.360;2022-08-01T05:10:17;95262.78;;;19.03;61.30
36192;BME280;22233;42.708;23.360;2022-08-01T05:12:42;95258.97;;;19.11;59.98
36192;BME280;22233;42.708;23.360;2022-08-01T05:15:08;95252.09;;;19.25;59.03
36192;BME280;22233;42.708;23.360;2022-08-01T05:17:33;95253.28;;;19.24;59.56
36192;BME280;22233;42.708;23.360;2022-08-01T05:19:59;95248.03;;;19.45;58.62
36192;BME280;22233;42.708;23.360;2022-08-01T05:22:24;95226.34;;;19.40;58.66
36192;BME280;22233;42.708;23.360;2022-08-01T05:24:50;95255.94;;;19.77;57.96
36192;BME280;22233;42.708;23.360;2022-08-01T05:27:16;95258.78;;;19.88;57.70
36192;BME280;22233;42.708;23.360;2022-08-01T05:29:41;95249.75;;;19.87;57.58
36192;BME280;22233;42.708;23.360;2022-08-01T05:32:07;95240.16;;;20.11;56.54
36192;BME280;22233;42.708;23.360;2022-08-01T05:34:33;95246.88;;;20.14;55.87
36192;BME280;22233;42.708;23.360;2022-08-01T05:36:58;95262.88;;;20.39;55.08
36192;BME280;22233;42.708;23.360;2022-08-01T05:39:24;95244.78;;;20.41;53.82
36192;BME280;22233;42.708;23.360;2022-08-01T05:41:49;95253.50;;;20.47;52.75
36192;BME280;22233;42.708;23.360;2022-08-01T05:44:14;95259.88;;;20.58;52.45
36192;BME280;22233;42.708;23.360;2022-08-01T05:46:40;95269.97;;;20.81;52.27
36192;BME280;22233;42.708;23.360;2022-08-01T05:49:05;95239.53;;;20.73;52.09
36192;BME280;22233;42.708;23.360;2022-08-01T05:51:31;95249.88;;;20.84;51.22
36192;BME280;22233;42.708;23.360;2022-08-01T05:53:57;95266.91;;;20.97;51.41
36192;BME280;22233;42.708;23.360;2022-08-01T05:56:23;95264.97;;;20.97;51.44
36192;BME280;22233;42.708;23.360;2022-08-01T05:58:50;95266.22;;;21.07;51.88
36192;BME280;22233;42.708;23.360;2022-08-01T06:01:16;95268.13;;;20.99;51.93
36192;BME280;22233;42.708;23.360;2022-08-01T06:03:42;95265.50;;;21.21;51.35
36192;BME280;22233;42.708;23.360;2022-08-01T06:06:07;95278.47;;;21.09;52.01
36192;BME280;22233;42.708;23.360;2022-08-01T06:08:33;95265.03;;;21.08;51.27
36192;BME280;22233;42.708;23.360;2022-08-01T06:10:58;95257.63;;;21.26;50.65
36192;BME280;22233;42.708;23.360;2022-08-01T06:13:24;95252.63;;;21.43;49.83
36192;BME280;22233;42.708;23.360;2022-08-01T06:15:50;95253.44;;;21.43;50.09
36192;BME280;22233;42.708;23.360;2022-08-01T06:18:15;95253.47;;;21.54;49.74
36192;BME280;22233;42.708;23.360;2022-08-01T06:20:41;95269.34;;;21.75;49.21
36192;BME280;22233;42.708;23.360;2022-08-01T06:23:07;95260.66;;;21.73;48.76
36192;BME280;22233;42.708;23.360;2022-08-01T06:25:33;95250.81;;;21.76;49.07
36192;BME280;22233;42.708;23.360;2022-08-01T06:27:59;95257.88;;;21.66;49.42
36192;BME280;22233;42.708;23.360;2022-08-01T06:30:24;95267.34;;;21.68;50.30
36192;BME280;22233;42.708;23.360;2022-08-01T06:32:50;95247.63;;;21.70;49.83
36192;BME280;22233;42.708;23.360;2022-08-01T06:35:16;95260.75;;;21.98;50.16
36192;BME280;22233;42.708;23.360;2022-08-01T06:37:41;95255.28;;;22.20;48.14
36192;BME280;22233;42.708;23.360;2022-08-01T06:40:08;95259.63;;;22.13;48.28
36192;BME280;22233;42.708;23.360;2022-08-01T06:42:34;95252.94;;;22.25;47.67
36192;BME280;22233;42.708;23.360;2022-08-01T06:45:10;95255.34;;;22.30;48.04
36192;BME280;22233;42.708;23.360;2022-08-01T06:47:37;95234.75;;;22.31;47.11
36192;BME280;22233;42.708;23.360;2022-08-01T06:50:06;95248.97;;;22.23;47.31
36192;BME280;22233;42.708;23.360;2022-08-01T06:52:32;95243.09;;;22.46;47.14
36192;BME280;22233;42.708;23.360;2022-08-01T06:54:59;95239.53;;;22.63;47.05
36192;BME280;22233;42.708;23.360;2022-08-01T06:57:25;95253.00;;;22.68;45.76
36192;BME280;22233;42.708;23.360;2022-08-01T06:59:51;95232.03;;;22.53;46.41
36192;BME280;22233;42.708;23.360;2022-08-01T07:02:16;95237.19;;;22.58;46.86
36192;BME280;22233;42.708;23.360;2022-08-01T07:04:41;95236.38;;;22.83;46.30
36192;BME280;22233;42.708;23.360;2022-08-01T07:07:07;95222.94;;;22.70;45.85
36192;BME280;22233;42.708;23.360;2022-08-01T07:09:32;95232.44;;;22.77;45.53
36192;BME280;22233;42.708;23.360;2022-08-01T07:11:58;95230.03;;;22.93;45.04
36192;BME280;22233;42.708;23.360;2022-08-01T07:14:24;95234.00;;;22.78;45.82
36192;BME280;22233;42.708;23.360;2022-08-01T07:16:50;95242.31;;;22.78;45.75
36192;BME280;22233;42.708;23.360;2022-08-01T07:19:16;95233.22;;;22.52;45.47
36192;BME280;22233;42.708;23.360;2022-08-01T07:21:42;95234.38;;;22.80;44.99
36192;BME280;22233;42.708;23.360;2022-08-01T07:24:09;95222.16;;;22.88;45.04
36192;BME280;22233;42.708;23.360;2022-08-01T07:26:35;95245.06;;;22.99;45.18
36192;BME280;22233;42.708;23.360;2022-08-01T07:29:00;95238.34;;;22.93;45.46
36192;BME280;22233;42.708;23.360;2022-08-01T07:31:26;95242.69;;;22.98;45.05
36192;BME280;22233;42.708;23.360;2022-08-01T07:33:51;95251.81;;;23.02;44.67
36192;BME280;22233;42.708;23.360;2022-08-01T07:36:17;95236.75;;;23.21;45.39
36192;BME280;22233;42.708;23.360;2022-08-01T07:38:44;95216.94;;;23.37;45.00
36192;BME280;22233;42.708;23.360;2022-08-01T07:41:09;95230.41;;;23.38;43.51
36192;BME280;22233;42.708;23.360;2022-08-01T07:43:35;95242.31;;;23.24;44.32
36192;BME280;22233;42.708;23.360;2022-08-01T07:46:02;95239.56;;;23.06;45.31
36192;BME280;22233;42.708;23.360;2022-08-01T07:48:27;95247.41;;;23.26;44.84
36192;BME280;22233;42.708;23.360;2022-08-01T07:50:54;95251.41;;;23.18;44.78
36192;BME280;22233;42.708;23.360;2022-08-01T07:53:19;95231.25;;;23.03;45.68
36192;BME280;22233;42.708;23.360;2022-08-01T07:55:44;95230.47;;;23.02;45.22
36192;BME280;22233;42.708;23.360;2022-08-01T07:58:10;95235.56;;;23.22;45.59
36192;BME280;22233;42.708;23.360;2022-08-01T08:00:35;95224.84;;;23.35;44.93
36192;BME280;22233;42.708;23.360;2022-08-01T08:03:01;95232.34;;;23.48;44.83
36192;BME280;22233;42.708;23.360;2022-08-01T08:05:26;95237.38;;;23.71;45.11
36192;BME280;22233;42.708;23.360;2022-08-01T08:07:52;95226.28;;;23.75;44.46
36192;BME280;22233;42.708;23.360;2022-08-01T08:10:18;95229.13;;;23.53;45.42
36192;BME280;22233;42.708;23.360;2022-08-01T08:12:43;95237.00;;;23.69;45.21
36192;BME280;22233;42.708;23.360;2022-08-01T08:15:09;95247.25;;;23.76;45.54
36192;BME280;22233;42.708;23.360;2022-08-01T08:17:34;95222.69;;;23.85;43.64
36192;BME280;22233;42.708;23.360;2022-08-01T08:20:01;95238.13;;;23.90;42.40
36192;BME280;22233;42.708;23.360;2022-08-01T08:22:27;95236.16;;;23.76;42.70
36192;BME280;22233;42.708;23.360;2022-08-01T08:24:52;95237.78;;;23.73;42.61
36192;BME280;22233;42.708;23.360;2022-08-01T08:27:18;95229.78;;;23.97;42.38
36192;BME280;22233;42.708;23.360;2022-08-01T08:29:43;95241.72;;;23.90;42.65
36192;BME280;22233;42.708;23.360;2022-08-01T08:32:09;95217.44;;;24.09;42.53
36192;BME280;22233;42.708;23.360;2022-08-01T08:34:35;95242.34;;;24.20;41.87
36192;BME280;22233;42.708;23.360;2022-08-01T08:37:01;95233.34;;;23.98;42.58
36192;BME280;22233;42.708;23.360;2022-08-01T08:39:26;95224.22;;;24.01;41.85
36192;BME280;22233;42.708;23.360;2022-08-01T08:41:55;95247.25;;;23.87;42.13
36192;BME280;22233;42.708;23.360;2022-08-01T08:44:21;95229.69;;;24.15;41.64
36192;BME280;22233;42.708;23.360;2022-08-01T08:46:49;95237.59;;;24.17;40.61
36192;BME280;22233;42.708;23.360;2022-08-01T08:49:21;95251.81;;;24.26;39.73
36192;BME280;22233;42.708;23.360;2022-08-01T08:51:49;95208.25;;;24.16;40.60
36192;BME280;22233;42.708;23.360;2022-08-01T08:54:15;95222.72;;;24.52;40.28
36192;BME280;22233;42.708;23.360;2022-08-01T08:56:42;95207.03;;;24.24;40.52
36192;BME280;22233;42.708;23.360;2022-08-01T08:59:11;95233.47;;;24.43;39.90
36192;BME280;22233;42.708;23.360;2022-08-01T09:01:38;95213.63;;;24.44;40.76
36192;BME280;22233;42.708;23.360;2022-08-01T09:04:04;95228.66;;;24.50;40.33
36192;BME280;22233;42.708;23.360;2022-08-01T09:06:30;95209.53;;;24.63;40.22
36192;BME280;22233;42.708;23.360;2022-08-01T09:08:57;95224.75;;;24.93;40.57
36192;BME280;22233;42.708;23.360;2022-08-01T09:11:22;95220.78;;;24.94;40.13
36192;BME280;22233;42.708;23.360;2022-08-01T09:16:32;95211.25;;;24.95;40.17
36192;BME280;22233;42.708;23.360;2022-08-01T09:21:37;95200.53;;;24.97;39.83
36192;BME280;22233;42.708;23.360;2022-08-01T09:24:03;95203.16;;;25.11;39.41
36192;BME280;22233;42.708;23.360;2022-08-01T09:26:35;95198.41;;;25.08;39.37
36192;BME280;22233;42.708;23.360;2022-08-01T09:29:09;95197.59;;;25.11;39.39
36192;BME280;22233;42.708;23.360;2022-08-01T09:31:43;95188.34;;;24.80;39.69
36192;BME280;22233;42.708;23.360;2022-08-01T09:34:09;95193.00;;;24.94;39.22
36192;BME280;22233;42.708;23.360;2022-08-01T09:36:52;95196.63;;;25.29;38.63
36192;BME280;22233;42.708;23.360;2022-08-01T09:39:22;95195.66;;;25.05;38.16
36192;BME280;22233;42.708;23.360;2022-08-01T09:41:48;95204.31;;;25.14;37.72
36192;BME280;22233;42.708;23.360;2022-08-01T09:44:16;95192.47;;;25.06;37.69
36192;BME280;22233;42.708;23.360;2022-08-01T09:47:01;95215.47;;;25.10;37.71
36192;BME280;22233;42.708;23.360;2022-08-01T09:49:29;95213.03;;;25.16;38.09
36192;BME280;22233;42.708;23.360;2022-08-01T09:51:55;95213.06;;;25.12;38.28
36192;BME280;22233;42.708;23.360;2022-08-01T09:54:29;95203.25;;;25.42;38.11
36192;BME280;22233;42.708;23.360;2022-08-01T09:57:07;95185.34;;;25.43;38.75
36192;BME280;22233;42.708;23.360;2022-08-01T09:59:37;95211.81;;;25.55;38.56
36192;BME280;22233;42.708;23.360;2022-08-01T10:02:06;95199.28;;;25.74;38.24
36192;BME280;22233;42.708;23.360;2022-08-01T10:04:33;95185.28;;;25.50;38.60
36192;BME280;22233;42.708;23.360;2022-08-01T10:07:07;95175.41;;;25.77;38.29
36192;BME280;22233;42.708;23.360;2022-08-01T10:09:35;95206.19;;;25.62;39.30
36192;BME280;22233;42.708;23.360;2022-08-01T10:12:02;95191.44;;;25.65;39.69
36192;BME280;22233;42.708;23.360;2022-08-01T10:14:28;95201.41;;;25.63;40.10
36192;BME280;22233;42.708;23.360;2022-08-01T10:16:56;95198.06;;;25.75;39.53
36192;BME280;22233;42.708;23.360;2022-08-01T10:19:25;95190.38;;;25.90;39.42
36192;BME280;22233;42.708;23.360;2022-08-01T10:21:52;95192.97;;;26.04;39.20
36192;BME280;22233;42.708;23.360;2022-08-01T10:24:20;95158.50;;;25.95;38.77
36192;BME280;22233;42.708;23.360;2022-08-01T10:26:54;95177.53;;;26.00;38.80
36192;BME280;22233;42.708;23.360;2022-08-01T10:29:21;95161.31;;;25.91;37.99
36192;BME280;22233;42.708;23.360;2022-08-01T10:31:47;95160.78;;;25.69;38.85
36192;BME280;22233;42.708;23.360;2022-08-01T10:34:16;95184.19;;;26.06;38.77
36192;BME280;22233;42.708;23.360;2022-08-01T10:36:45;95192.75;;;26.19;37.60
36192;BME280;22233;42.708;23.360;2022-08-01T10:39:11;95177.19;;;25.94;38.55
36192;BME280;22233;42.708;23.360;2022-08-01T10:41:41;95169.69;;;26.18;38.01
36192;BME280;22233;42.708;23.360;2022-08-01T10:44:07;95150.47;;;26.00;37.23
36192;BME280;22233;42.708;23.360;2022-08-01T10:46:37;95164.31;;;26.31;38.05
36192;BME280;22233;42.708;23.360;2022-08-01T10:49:08;95168.53;;;26.16;38.30
36192;BME280;22233;42.708;23.360;2022-08-01T10:51:37;95154.91;;;26.21;37.73
36192;BME280;22233;42.708;23.360;2022-08-01T10:54:09;95134.38;;;26.39;37.66
36192;BME280;22233;42.708;23.360;2022-08-01T10:56:44;95170.44;;;26.46;37.54
36192;BME280;22233;42.708;23.360;2022-08-01T10:59:15;95172.69;;;26.58;37.81
36192;BME280;22233;42.708;23.360;2022-08-01T11:01:58;95145.56;;;26.62;37.90
36192;BME280;22233;42.708;23.360;2022-08-01T11:05:09;95168.13;;;26.68;37.66
36192;BME280;22233;42.708;23.360;2022-08-01T11:07:46;95151.50;;;26.64;37.97
36192;BME280;22233;42.708;23.360;2022-08-01T11:10:38;95159.97;;;26.81;36.96
36192;BME280;22233;42.708;23.360;2022-08-01T11:13:04;95142.13;;;26.51;37.79
36192;BME280;22233;42.708;23.360;2022-08-01T11:15:33;95169.25;;;26.20;38.29
36192;BME280;22233;42.708;23.360;2022-08-01T11:18:01;95165.28;;;26.72;37.54
36192;BME280;22233;42.708;23.360;2022-08-01T11:20:32;95159.41;;;26.66;37.36
36192;BME280;22233;42.708;23.360;2022-08-01T11:36:27;95158.72;;;27.05;36.65
36192;BME280;22233;42.708;23.360;2022-08-01T11:41:31;95138.59;;;26.94;36.86
36192;BME280;22233;42.708;23.360;2022-08-01T11:44:13;95138.72;;;27.10;36.17
36192;BME280;22233;42.708;23.360;2022-08-01T11:52:05;95137.47;;;27.35;36.15
36192;BME280;22233;42.708;23.360;2022-08-01T11:54:36;95145.25;;;27.00;36.87
36192;BME280;22233;42.708;23.360;2022-08-01T11:57:05;95138.38;;;27.28;36.57
36192;BME280;22233;42.708;23.360;2022-08-01T11:59:36;95143.59;;;27.66;36.42
36192;BME280;22233;42.708;23.360;2022-08-01T12:02:02;95134.72;;;27.92;35.93
36192;BME280;22233;42.708;23.360;2022-08-01T12:04:47;95133.28;;;27.83;35.38
36192;BME280;22233;42.708;23.360;2022-08-01T12:07:14;95116.94;;;28.02;35.50
36192;BME280;22233;42.708;23.360;2022-08-01T12:09:40;95125.34;;;27.62;36.07
36192;BME280;22233;42.708;23.360;2022-08-01T12:12:06;95121.88;;;27.94;36.27
36192;BME280;22233;42.708;23.360;2022-08-01T12:14:31;95131.88;;;28.12;35.92
36192;BME280;22233;42.708;23.360;2022-08-01T12:16:57;95119.03;;;28.14;36.12
36192;BME280;22233;42.708;23.360;2022-08-01T12:19:23;95146.19;;;28.79;35.16
36192;BME280;22233;42.708;23.360;2022-08-01T12:22:09;95144.19;;;28.47;35.52
36192;BME280;22233;42.708;23.360;2022-08-01T12:24:36;95127.78;;;28.49;34.99
36192;BME280;22233;42.708;23.360;2022-08-01T12:27:02;95144.28;;;28.43;34.85
36192;BME280;22233;42.708;23.360;2022-08-01T12:29:41;95141.69;;;28.53;34.92
36192;BME280;22233;42.708;23.360;2022-08-01T12:32:31;95128.59;;;28.66;34.92
36192;BME280;22233;42.708;23.360;2022-08-01T12:35:05;95144.38;;;28.73;34.33
36192;BME280;22233;42.708;23.360;2022-08-01T12:37:34;95145.06;;;28.77;34.70
36192;BME280;22233;42.708;23.360;2022-08-01T12:40:00;95136.13;;;29.15;34.07
36192;BME280;22233;42.708;23.360;2022-08-01T12:42:26;95123.19;;;29.04;34.07
36192;BME280;22233;42.708;23.360;2022-08-01T12:44:52;95127.59;;;28.89;34.41
36192;BME280;22233;42.708;23.360;2022-08-01T12:47:19;95138.13;;;28.52;35.28
36192;BME280;22233;42.708;23.360;2022-08-01T12:49:46;95131.56;;;29.04;34.42
36192;BME280;22233;42.708;23.360;2022-08-01T12:52:12;95138.38;;;29.03;34.33
36192;BME280;22233;42.708;23.360;2022-08-01T12:57:26;95116.00;;;28.74;35.08
36192;BME280;22233;42.708;23.360;2022-08-01T13:00:24;95116.06;;;29.45;33.92
36192;BME280;22233;42.708;23.360;2022-08-01T13:03:01;95099.69;;;29.18;34.56
36192;BME280;22233;42.708;23.360;2022-08-01T13:05:27;95116.53;;;29.44;33.61
36192;BME280;22233;42.708;23.360;2022-08-01T13:07:53;95118.34;;;29.63;33.59
36192;BME280;22233;42.708;23.360;2022-08-01T13:10:29;95102.22;;;29.42;33.57
36192;BME280;22233;42.708;23.360;2022-08-01T13:12:57;95110.09;;;29.18;34.52
36192;BME280;22233;42.708;23.360;2022-08-01T13:17:50;95108.69;;;28.93;35.12
36192;BME280;22233;42.708;23.360;2022-08-01T13:22:51;95111.31;;;29.17;34.29
36192;BME280;22233;42.708;23.360;2022-08-01T13:25:17;95108.50;;;29.17;34.67
36192;BME280;22233;42.708;23.360;2022-08-01T13:27:43;95095.31;;;28.72;35.35
36192;BME280;22233;42.708;23.360;2022-08-01T13:30:17;95109.16;;;28.92;35.11
36192;BME280;22233;42.708;23.360;2022-08-01T13:32:44;95098.50;;;29.32;34.01
36192;BME280;22233;42.708;23.360;2022-08-01T13:35:22;95102.13;;;29.58;33.97